Time;durP1;ratioP1;P1;durP2;ratioP2;P2;SDS_P1;SDS_P2;PMS_P1;PMS_P2;Temp;Humidity;BMP_temperature;BMP_pressure;BME280_temperature;BME280_humidity;BME280_pressure;Samples;Min_cycle;Max_cycle;Signal;HPM_P1;HPM_P2
2023/10/02 00:01:57;;;;;;;;;;;;;;;;;;2224753;58;2759;-80
2023/10/02 00:04:34;;;;;;;;;;;;;;;;;;2226820;58;1963;-79
2023/10/02 00:07:07;;;;;;;;;;;;;;;;;;2225060;58;2308;-81
2023/10/02 00:09:42;;;;;;;;;;;;;;;;;;2227104;58;1792;-80
2023/10/02 00:12:16;;;;;;;;;;;;;;;;;;2224865;58;2173;-81
2023/10/02 00:14:48;;;;;;;;;;;;;;;;;;2225452;58;2185;-80
2023/10/02 00:17:22;;;;;;;;;;;;;;;;;;2223271;58;2344;-80
2023/10/02 00:19:58;;;;;;;;;;;;;;;;;;2224666;58;2322;-80
2023/10/02 00:22:43;;;;;;;;;;;;;;;;;;2226802;58;1662;-81
2023/10/02 00:25:19;;;;;;;;;;;;;;;;;;2224851;66;1898;-81
2023/10/02 00:27:59;;;;;;;;;;;;;;;;;;2227454;58;1784;-80
2023/10/02 00:30:36;;;;;;;;;;;;;;;;;;2226828;58;2711;-79
2023/10/02 00:33:11;;;;;;;;;;;;;;;;;;2226554;58;1813;-80
2023/10/02 00:35:50;;;;;;;;;;;;;;;;;;2227545;58;2572;-79
2023/10/02 00:38:20;;;;;;;;;;;;;;;;;;2231075;58;2349;-80
2023/10/02 00:40:51;;;;;;;;;;;;;;;;;;2233831;58;2288;-80
2023/10/02 00:43:33;;;;;;;;;;;;;;;;;;2231379;58;2301;-80
2023/10/02 00:46:04;;;;;;;;;;;;;;;;;;2226402;58;2121;-81
2023/10/02 00:48:37;;;;;;;;;;;;;;;;;;2227684;58;1891;-81
2023/10/02 00:51:11;;;;;;;;;;;;;;;;;;2224568;58;2027;-80
2023/10/02 00:53:46;;;;;;;;;;;;;;;;;;2225484;58;1781;-79
2023/10/02 00:56:28;;;;;;;;;;;;;;;;;;2225837;58;2407;-80
2023/10/02 00:59:00;;;;;;;;;;;;;;;;;;2224640;58;2845;-79
2023/10/02 01:01:31;;;;;;;;;;;;;;;;;;2227160;58;1860;-80
2023/10/02 01:04:28;;;;;;;;;;;;;;;;;;2223311;58;1940;-79
2023/10/02 01:07:06;;;;;;;;;;;;;;;;;;2224390;58;2797;-81
2023/10/02 01:09:36;;;;;;;;;;;;;;;;;;2229851;58;1808;-80
2023/10/02 01:12:10;;;;;;;;;;;;;;;;;;2227944;66;1545;-80
2023/10/02 01:14:50;;;;;;;;;;;;;;;;;;2227146;58;2292;-80
2023/10/02 01:17:21;;;;;;;;;;;;;;;;;;2225430;58;2312;-79
2023/10/02 01:19:54;;;;;;;;;;;;;;;;;;2226484;58;1736;-81
2023/10/02 01:22:28;;;;;;;;;;;;;;;;;;2226830;58;1977;-80
2023/10/02 01:25:15;;;;;;;;;;;;;;;;;;2225660;58;3853;-80
2023/10/02 01:27:50;;;;;;;;;;;;;;;;;;2226632;58;2099;-80
2023/10/02 01:30:22;;;;;;;;;;;;;;;;;;2224921;58;1790;-80
2023/10/02 01:33:06;;;;;;;;;;;;;;;;;;2227153;58;1895;-80
2023/10/02 01:35:49;;;;;;;;;;;;;;;;;;2227374;66;1317;-80
2023/10/02 01:38:24;;;;;;;;;;;;;;;;;;2226141;58;1992;-80
2023/10/02 01:41:02;;;;;;;;;;;;;;;;;;2226521;66;1101;-80
2023/10/02 01:44:04;;;;;;;;;;;;;;;;;;2227135;66;1326;-79
2023/10/02 01:46:36;;;;;;;;;;;;;;;;;;2225477;59;1486;-81
2023/10/02 01:49:25;;;;;;;;;;;;;;;;;;2225306;66;1575;-80
2023/10/02 01:51:58;;;;;;;;;;;;;;;;;;2227361;58;1456;-80
2023/10/02 01:54:31;;;;;;;;;;;;;;;;;;2227093;66;1461;-80
2023/10/02 01:57:04;;;;;;;;;;;;;;;;;;2225787;66;1947;-80
2023/10/02 01:59:34;;;;;;;;;;;;;;;;;;2228202;66;1326;-80
2023/10/02 02:02:12;;;;;;;;;;;;;;;;;;2225496;58;1344;-82
2023/10/02 02:04:43;;;;;;;;;;;;;;;;;;2227922;66;1061;-80
2023/10/02 02:07:15;;;;;;;;;;;;;;;;;;2226672;58;1988;-80
2023/10/02 02:09:46;;;;;;;;;;;;;;;;;;2224773;66;1350;-80
2023/10/02 02:12:18;;;;;;;;;;;;;;;;;;2224288;58;1181;-80
2023/10/02 02:14:51;;;;;;;;;;;;;;;;;;2225062;66;1337;-79
2023/10/02 02:17:23;;;;;;;;;;;;;;;;;;2223013;58;3240;-80
2023/10/02 02:19:59;;;;;;;;;;;;;;;;;;2226888;58;1975;-82
2023/10/02 02:22:32;;;;;;;;;;;;;;;;;;2226554;58;1787;-81
2023/10/02 02:25:05;;;;;;;;;;;;;;;;;;2225355;58;1971;-80
2023/10/02 02:27:36;;;;;;;;;;;;;;;;;;2227449;63;2613;-80
2023/10/02 02:30:10;;;;;;;;;;;;;;;;;;2224896;58;2687;-80
2023/10/02 02:32:54;;;;;;;;;;;;;;;;;;2227365;58;2813;-80
2023/10/02 02:35:39;;;;;;;;;;;;;;;;;;2225980;58;2741;-80
2023/10/02 02:38:15;;;;;;;;;;;;;;;;;;2224527;58;2043;-79
2023/10/02 02:41:05;;;;;;;;;;;;;;;;;;2225715;58;1765;-80
2023/10/02 02:43:38;;;;;;;;;;;;;;;;;;2225862;58;1840;-79
2023/10/02 02:46:17;;;;;;;;;;;;;;;;;;2225293;58;2428;-80
2023/10/02 02:48:55;;;;;;;;;;;;;;;;;;2226960;58;1853;-80
2023/10/02 02:51:28;;;;;;;;;;;;;;;;;;2224809;58;2368;-79
2023/10/02 02:54:04;;;;;;;;;;;;;;;;;;2225596;66;2660;-79
2023/10/02 02:56:34;;;;;;;;;;;;;;;;;;2225676;58;2294;-80
2023/10/02 02:59:12;;;;;;;;;;;;;;;;;;2225468;58;2182;-80
2023/10/02 03:01:44;;;;;;;;;;;;;;;;;;2226398;58;3696;-80
2023/10/02 03:04:16;;;;;;;;;;;;;;;;;;2224826;58;2388;-79
2023/10/02 03:07:07;;;;;;;;;;;;;;;;;;2226273;58;2419;-80
2023/10/02 03:09:36;;;;;;;;;;;;;;;;;;2226449;58;2171;-80
2023/10/02 03:12:09;;;;;;;;;;;;;;;;;;2226187;58;2759;-80
2023/10/02 03:14:40;;;;;;;;;;;;;;;;;;2226626;58;2879;-80
2023/10/02 03:17:28;;;;;;;;;;;;;;;;;;2223483;58;2841;-80
2023/10/02 03:20:06;;;;;;;;;;;;;;;;;;2224928;58;2470;-80
2023/10/02 03:22:36;;;;;;;;;;;;;;;;;;2226768;58;1697;-80
2023/10/02 03:25:30;;;;;;;;;;;;;;;;;;2226046;58;1844;-80
2023/10/02 03:27:57;;;;;;;;;;;;;;;;;;2227735;59;2030;-80
2023/10/02 03:30:40;;;;;;;;;;;;;;;;;;2223936;58;1911;-80
2023/10/02 03:33:20;;;;;;;;;;;;;;;;;;2223779;58;3383;-80
2023/10/02 03:36:10;;;;;;;;;;;;;;;;;;2225601;58;2312;-80
2023/10/02 03:38:43;;;;;;;;;;;;;;;;;;2225289;58;2406;-80
2023/10/02 03:41:14;;;;;;;;;;;;;;;;;;2224872;58;3437;-79
2023/10/02 03:43:46;;;;;;;;;;;;;;;;;;2224438;58;2027;-80
2023/10/02 03:46:24;;;;;;;;;;;;;;;;;;2225328;58;2334;-80
2023/10/02 03:49:04;;;;;;;;;;;;;;;;;;2226237;58;2635;-80
2023/10/02 03:51:40;;;;;;;;;;;;;;;;;;2226404;58;2381;-80
2023/10/02 03:54:20;;;;;;;;;;;;;;;;;;2227003;58;1663;-80
2023/10/02 03:56:55;;;;;;;;;;;;;;;;;;2227677;58;2014;-80
2023/10/02 03:59:33;;;;;;;;;;;;;;;;;;2225701;58;3497;-80
2023/10/02 04:04:55;;;;;;;;;;;;;;;;;;2227384;58;2314;-80
2023/10/02 04:07:25;;;;;;;;;;;;;;;;;;2225041;58;1718;-81
2023/10/02 04:10:07;;;;;;;;;;;;;;;;;;2227856;58;2748;-80
2023/10/02 04:12:50;;;;;;;;;;;;;;;;;;2227512;58;3528;-80
2023/10/02 04:15:21;;;;;;;;;;;;;;;;;;2226606;58;2386;-80
2023/10/02 04:18:45;;;;;;;;;;;;;;;;;;2226904;58;2195;-80
2023/10/02 04:21:12;;;;;;;;;;;;;;;;;;2226471;58;2461;-81
2023/10/02 04:23:45;;;;;;;;;;;;;;;;;;2227985;58;2098;-80
2023/10/02 04:26:19;;;;;;;;;;;;;;;;;;2230783;58;2410;-81
2023/10/02 04:29:15;;;;;;;;;;;;;;;;;;2233481;58;1753;-80
2023/10/02 04:32:12;;;;;;;;;;;;;;;;;;2232602;58;1829;-81
2023/10/02 04:34:57;;;;;;;;;;;;;;;;;;2226454;58;1855;-81
2023/10/02 04:37:45;;;;;;;;;;;;;;;;;;2226318;58;2239;-81
2023/10/02 04:40:23;;;;;;;;;;;;;;;;;;2232884;58;1970;-80
2023/10/02 04:42:57;;;;;;;;;;;;;;;;;;2234822;58;2076;-80
2023/10/02 04:45:35;;;;;;;;;;;;;;;;;;2230083;58;2518;-81
2023/10/02 04:48:27;;;;;;;;;;;;;;;;;;2226553;58;2015;-81
2023/10/02 04:51:03;;;;;;;;;;;;;;;;;;2226284;58;2303;-81
2023/10/02 04:53:42;;;;;;;;;;;;;;;;;;2224948;58;1970;-80
2023/10/02 04:58:54;;;;;;;;;;;;;;;;;;2227251;58;1917;-81
2023/10/02 05:01:41;;;;;;;;;;;;;;;;;;2226117;58;1888;-81
2023/10/02 05:04:18;;;;;;;;;;;;;;;;;;2226106;59;1831;-82
2023/10/02 05:06:55;;;;;;;;;;;;;;;;;;2228028;58;1958;-81
2023/10/02 05:09:26;;;;;;;;;;;;;;;;;;2225085;58;2625;-81
2023/10/02 05:11:56;;;;;;;;;;;;;;;;;;2227844;58;1611;-81
2023/10/02 05:14:28;;;;;;;;;;;;;;;;;;2225054;58;1789;-80
2023/10/02 05:17:16;;;;;;;;;;;;;;;;;;2225812;58;1998;-80
2023/10/02 05:19:57;;;;;;;;;;;;;;;;;;2225250;58;3002;-80
2023/10/02 05:22:30;;;;;;;;;;;;;;;;;;2225252;59;1836;-80
2023/10/02 05:25:04;;;;;;;;;;;;;;;;;;2226449;63;2490;-80
2023/10/02 05:27:37;;;;;;;;;;;;;;;;;;2226334;58;1770;-80
2023/10/02 05:30:18;;;;;;;;;;;;;;;;;;2225940;58;1878;-79
2023/10/02 05:33:07;;;;;;;;;;;;;;;;;;2231928;58;1998;-81
2023/10/02 05:35:45;;;;;;;;;;;;;;;;;;2234876;66;1701;-81
2023/10/02 05:38:18;;;;;;;;;;;;;;;;;;2231121;58;1911;-80
2023/10/02 05:40:49;;;;;;;;;;;;;;;;;;2226091;58;3210;-80
2023/10/02 05:43:21;;;;;;;;;;;;;;;;;;2225093;58;1763;-80
2023/10/02 05:45:53;;;;;;;;;;;;;;;;;;2226620;58;1843;-81
2023/10/02 05:48:31;;;;;;;;;;;;;;;;;;2225179;58;2109;-81
2023/10/02 05:51:09;;;;;;;;;;;;;;;;;;2226650;58;1779;-81
2023/10/02 05:53:53;;;;;;;;;;;;;;;;;;2225249;66;1999;-81
2023/10/02 05:57:08;;;;;;;;;;;;;;;;;;2225714;58;2407;-81
2023/10/02 05:59:47;;;;;;;;;;;;;;;;;;2226986;58;1741;-82
2023/10/02 06:02:19;;;;;;;;;;;;;;;;;;2222635;58;2133;-82
2023/10/02 06:05:07;;;;;;;;;;;;;;;;;;2226733;58;2011;-82
2023/10/02 06:07:43;;;;;;;;;;;;;;;;;;2225474;58;2188;-82
2023/10/02 06:10:26;;;;;;;;;;;;;;;;;;2225947;58;2037;-82
2023/10/02 06:13:05;;;;;;;;;;;;;;;;;;2226649;58;1721;-82
2023/10/02 06:15:51;;;;;;;;;;;;;;;;;;2225586;58;2791;-81
2023/10/02 06:18:38;;;;;;;;;;;;;;;;;;2225922;58;2119;-81
2023/10/02 06:21:10;;;;;;;;;;;;;;;;;;2226181;58;2240;-82
2023/10/02 06:23:45;;;;;;;;;;;;;;;;;;2225671;58;2348;-82
2023/10/02 06:26:15;;;;;;;;;;;;;;;;;;2225559;58;1872;-82
2023/10/02 06:29:13;;;;;;;;;;;;;;;;;;2226352;58;2223;-81
2023/10/02 06:31:41;;;;;;;;;;;;;;;;;;2225434;58;2146;-82
2023/10/02 06:34:14;;;;;;;;;;;;;;;;;;2225176;58;1864;-81
2023/10/02 06:37:03;;;;;;;;;;;;;;;;;;2226228;58;1940;-81
2023/10/02 06:39:42;;;;;;;;;;;;;;;;;;2225935;58;2779;-83
2023/10/02 06:42:19;;;;;;;;;;;;;;;;;;2225472;58;2515;-82
2023/10/02 06:44:53;;;;;;;;;;;;;;;;;;2225477;58;1989;-82
2023/10/02 06:47:29;;;;;;;;;;;;;;;;;;2224231;58;2743;-82
2023/10/02 06:50:34;;;;;;;;;;;;;;;;;;2226813;58;2435;-82
2023/10/02 06:52:59;;;;;;;;;;;;;;;;;;2225891;58;2111;-81
2023/10/02 06:55:32;;;;;;;;;;;;;;;;;;2224688;58;2466;-81
2023/10/02 06:58:02;;;;;;;;;;;;;;;;;;2226396;58;2324;-81
2023/10/02 07:01:18;;;;;;;;;;;;;;;;;;2225779;58;2006;-82
2023/10/02 07:03:26;;;;;;;;;;;;;;;;;;2223499;58;2014;-82
2023/10/02 07:05:57;;;;;;;;;;;;;;;;;;2226128;58;1995;-81
2023/10/02 07:08:30;;;;;;;;;;;;;;;;;;2224867;58;1876;-82
2023/10/02 07:11:11;;;;;;;;;;;;;;;;;;2226128;58;2241;-82
2023/10/02 07:13:51;;;;;;;;;;;;;;;;;;2225017;58;2260;-81
2023/10/02 07:16:22;;;;;;;;;;;;;;;;;;2225667;58;2589;-82
2023/10/02 07:18:54;;;;;;;;;;;;;;;;;;2227207;58;2091;-81
2023/10/02 07:21:27;;;;;;;;;;;;;;;;;;2224372;58;2612;-81
2023/10/02 07:23:58;;;;;;;;;;;;;;;;;;2225139;58;2333;-81
2023/10/02 07:29:37;;;;;;;;;;;;;;;;;;2224759;58;3027;-81
2023/10/02 07:32:07;;;;;;;;;;;;;;;;;;2224268;58;1691;-82
2023/10/02 07:34:38;;;;;;;;;;;;;;;;;;2223792;58;2958;-81
2023/10/02 07:37:08;;;;;;;;;;;;;;;;;;2225652;58;2728;-80
2023/10/02 07:39:39;;;;;;;;;;;;;;;;;;2224600;58;2345;-80
2023/10/02 07:42:16;;;;;;;;;;;;;;;;;;2226428;58;1614;-81
2023/10/02 07:44:46;;;;;;;;;;;;;;;;;;2226346;58;2443;-80
2023/10/02 07:47:16;;;;;;;;;;;;;;;;;;2223087;58;1773;-81
2023/10/02 07:49:48;;;;;;;;;;;;;;;;;;2224082;58;2040;-81
2023/10/02 07:52:35;;;;;;;;;;;;;;;;;;2223734;58;2263;-84
2023/10/02 07:55:10;;;;;;;;;;;;;;;;;;2226051;58;2406;-80
2023/10/02 07:57:40;;;;;;;;;;;;;;;;;;2224478;66;1932;-80
2023/10/02 08:03:02;;;;;;;;;;;;;;;;;;2225586;58;2267;-81
2023/10/02 08:05:33;;;;;;;;;;;;;;;;;;2221836;58;2236;-81
2023/10/02 08:08:09;;;;;;;;;;;;;;;;;;2224941;58;2717;-80
2023/10/02 08:10:52;;;;;;;;;;;;;;;;;;2224111;58;3091;-81
2023/10/02 08:13:56;;;;;;;;;;;;;;;;;;2223379;58;2635;-81
2023/10/02 08:16:22;;;;;;;;;;;;;;;;;;2223469;58;2087;-81
2023/10/02 08:19:10;;;;;;;;;;;;;;;;;;2222637;58;3581;-81
2023/10/02 08:21:46;;;;;;;;;;;;;;;;;;2223647;58;3539;-81
2023/10/02 08:24:18;;;;;;;;;;;;;;;;;;2223757;58;2515;-80
2023/10/02 08:26:50;;;;;;;;;;;;;;;;;;2225809;58;2709;-81
2023/10/02 08:29:21;;;;;;;;;;;;;;;;;;2224407;58;1900;-81
2023/10/02 08:31:53;;;;;;;;;;;;;;;;;;2224968;58;1658;-81
2023/10/02 08:34:26;;;;;;;;;;;;;;;;;;2224282;58;3617;-80
2023/10/02 08:37:07;;;;;;;;;;;;;;;;;;2224412;58;1928;-81
2023/10/02 08:39:41;;;;;;;;;;;;;;;;;;2224496;58;2228;-82
2023/10/02 08:42:11;;;;;;;;;;;;;;;;;;2224804;58;2287;-81
2023/10/02 08:44:42;;;;;;;;;;;;;;;;;;2223838;58;1928;-81
2023/10/02 08:47:24;;;;;;;;;;;;;;;;;;2223432;58;1604;-81
2023/10/02 08:50:04;;;;;;;;;;;;;;;;;;2225499;58;2349;-81
2023/10/02 08:52:42;;;;;;;;;;;;;;;;;;2224386;58;1863;-81
2023/10/02 08:55:35;;;;;;;;;;;;;;;;;;2226026;58;3047;-82
2023/10/02 08:58:21;;;;;;;;;;;;;;;;;;2225065;58;1942;-82
2023/10/02 09:03:43;;;;;;;;;;;;;;;;;;2224099;58;2543;-81
2023/10/02 09:06:28;;;;;;;;;;;;;;;;;;2225151;58;2246;-82
2023/10/02 09:09:17;;;;;;;;;;;;;;;;;;2225270;66;1703;-81
2023/10/02 09:12:08;;;;;;;;;;;;;;;;;;2221866;58;1748;-81
2023/10/02 09:14:39;;;;;;;;;;;;;;;;;;2222971;58;2234;-81
2023/10/02 09:17:20;;;;;;;;;;;;;;;;;;2225156;58;1945;-81
2023/10/02 09:19:57;;;;;;;;;;;;;;;;;;2228417;58;2852;-82
2023/10/02 09:22:28;;;;;;;;;;;;;;;;;;2223424;58;3006;-81
2023/10/02 09:25:09;;;;;;;;;;;;;;;;;;2222146;58;2258;-81
2023/10/02 09:27:54;;;;;;;;;;;;;;;;;;2222571;58;2889;-81
2023/10/02 09:33:08;;;;;;;;;;;;;;;;;;2234771;58;1772;-81
2023/10/02 09:38:16;;;;;;;;;;;;;;;;;;2223121;58;2389;-81
2023/10/02 09:43:30;;;;;;;;;;;;;;;;;;2222059;58;2398;-81
2023/10/02 09:46:16;;;;;;;;;;;;;;;;;;2223671;58;3301;-82
2023/10/02 09:49:09;;;;;;;;;;;;;;;;;;2222058;58;2838;-81
2023/10/02 09:52:09;;;;;;;;;;;;;;;;;;2222226;58;3636;-80
2023/10/02 09:54:49;;;;;;;;;;;;;;;;;;2222794;58;2503;-81
2023/10/02 09:57:25;;;;;;;;;;;;;;;;;;2224706;58;2584;-81
2023/10/02 09:59:57;;;;;;;;;;;;;;;;;;2230424;58;2389;-81
2023/10/02 10:07:46;;;;;;;;;;;;;;;;;;2222664;58;2363;-81
2023/10/02 10:10:27;;;;;;;;;;;;;;;;;;2224079;66;2589;-81
2023/10/02 10:13:09;;;;;;;;;;;;;;;;;;2229558;58;2507;-81
2023/10/02 10:15:40;;;;;;;;;;;;;;;;;;2230534;58;2459;-81
2023/10/02 10:18:12;;;;;;;;;;;;;;;;;;2230760;58;2130;-81
2023/10/02 10:20:44;;;;;;;;;;;;;;;;;;2222528;58;2628;-81
2023/10/02 10:23:31;;;;;;;;;;;;;;;;;;2222850;58;2566;-81
2023/10/02 10:26:08;;;;;;;;;;;;;;;;;;2220963;58;2366;-81
2023/10/02 10:28:51;;;;;;;;;;;;;;;;;;2221794;58;2387;-83
2023/10/02 10:31:33;;;;;;;;;;;;;;;;;;2222282;66;2369;-81
2023/10/02 10:34:05;;;;;;;;;;;;;;;;;;2222610;58;2215;-82
2023/10/02 10:36:36;;;;;;;;;;;;;;;;;;2221371;58;2365;-81
2023/10/02 10:39:33;;;;;;;;;;;;;;;;;;2223022;58;2347;-81
2023/10/02 10:42:03;;;;;;;;;;;;;;;;;;2222423;58;1644;-81
2023/10/02 10:44:34;;;;;;;;;;;;;;;;;;2221600;58;2168;-80
2023/10/02 10:47:04;;;;;;;;;;;;;;;;;;2222176;59;2784;-81
2023/10/02 10:49:53;;;;;;;;;;;;;;;;;;2222437;58;3257;-81
2023/10/02 10:52:34;;;;;;;;;;;;;;;;;;2221809;58;2897;-81
2023/10/02 10:55:32;;;;;;;;;;;;;;;;;;2221746;58;2595;-81
2023/10/02 10:58:02;;;;;;;;;;;;;;;;;;2222444;58;2489;-81
2023/10/02 11:00:35;;;;;;;;;;;;;;;;;;2220941;58;2468;-81
2023/10/02 11:03:08;;;;;;;;;;;;;;;;;;2221799;58;2495;-82
2023/10/02 11:05:39;;;;;;;;;;;;;;;;;;2220834;58;2544;-81
2023/10/02 11:08:23;;;;;;;;;;;;;;;;;;2224680;58;2165;-81
2023/10/02 11:11:00;;;;;;;;;;;;;;;;;;2221857;58;2202;-81
2023/10/02 11:13:50;;;;;;;;;;;;;;;;;;2220934;58;2392;-81
2023/10/02 11:16:30;;;;;;;;;;;;;;;;;;2222392;58;2499;-81
2023/10/02 11:22:03;;;;;;;;;;;;;;;;;;2219118;58;1956;-82
2023/10/02 11:24:33;;;;;;;;;;;;;;;;;;2220291;58;2637;-82
2023/10/02 11:27:04;;;;;;;;;;;;;;;;;;2219602;58;2761;-81
2023/10/02 11:29:40;;;;;;;;;;;;;;;;;;2220753;58;2565;-81
2023/10/02 11:32:19;;;;;;;;;;;;;;;;;;2221590;58;1822;-81
2023/10/02 11:34:51;;;;;;;;;;;;;;;;;;2219980;58;1704;-81
2023/10/02 11:37:23;;;;;;;;;;;;;;;;;;2221877;58;1909;-81
2023/10/02 11:39:55;;;;;;;;;;;;;;;;;;2220079;58;3559;-82
2023/10/02 11:42:25;;;;;;;;;;;;;;;;;;2221917;58;1777;-81
2023/10/02 11:44:57;;;;;;;;;;;;;;;;;;2221617;58;2405;-81
2023/10/02 11:47:28;;;;;;;;;;;;;;;;;;2222066;66;2475;-81
2023/10/02 11:49:59;;;;;;;;;;;;;;;;;;2222939;58;3570;-82
2023/10/02 11:52:31;;;;;;;;;;;;;;;;;;2222496;58;1734;-81
2023/10/02 11:55:02;;;;;;;;;;;;;;;;;;2222577;58;2463;-82
2023/10/02 11:57:33;;;;;;;;;;;;;;;;;;2220937;59;2420;-81
2023/10/02 12:02:41;;;;;;;;;;;;;;;;;;2202058;59;3463;-20
2023/10/02 12:05:16;;;;;;;;;;;;;;;;;;2205659;66;3572;-20
2023/10/02 12:07:46;;;;;;;;;;;;;;;;;;2204293;59;2445;-20
2023/10/02 12:10:17;;;;;;;;;;;;;;;;;;2204650;66;3685;-20
2023/10/02 12:12:47;;;;;;;;;;;;;;;;;;2216404;58;2965;-19
2023/10/02 12:15:19;;;;;;;;;;;;;;;;;;2205202;59;3639;-19
2023/10/02 12:17:49;;;;;;;;;;;;;;;;;;2204830;59;3466;-19
2023/10/02 12:20:22;;;;;;;;;;;;;;;;;;2206095;59;2412;-19
2023/10/02 12:22:53;;;;;;;;;;;;;;;;;;2205030;66;4109;-19
2023/10/02 12:25:23;;;;;;;;;;;;;;;;;;2205129;59;3083;-20
2023/10/02 12:27:53;;;;;;;;;;;;;;;;;;2205149;59;2730;-18
2023/10/02 12:30:28;;;;;;;;;;;;;;;;;;2217090;62;2449;-18
2023/10/02 12:33:01;;;;;;;;;;;;;;;;;;2216427;63;2507;-18
2023/10/02 12:35:32;;;;;;;;;;;;;;;;;;2215866;66;4434;-18
2023/10/02 12:38:02;;;;;;;;;;;;;;;;;;2205670;59;3395;-18
2023/10/02 12:40:33;;;;;;;;;;;;;;;;;;2204832;66;3944;-18
2023/10/02 12:43:04;;;;;;;;;;;;;;;;;;2206451;59;3706;-18
2023/10/02 12:45:35;;;;;;;;;;;;;;;;;;2204983;66;2932;-18
2023/10/02 12:48:06;;;;;;;;;;;;;;;;;;2205775;66;2499;-18
2023/10/02 12:50:37;;;;;;;;;;;;;;;;;;2213426;58;3328;-18
2023/10/02 12:53:10;;;;;;;;;;;;;;;;;;2205250;59;3603;-19
2023/10/02 12:55:43;;;;;;;;;;;;;;;;;;2204251;66;3333;-18
2023/10/02 12:58:14;;;;;;;;;;;;;;;;;;2205449;66;3678;-18
2023/10/02 13:00:44;;;;;;;;;;;;;;;;;;2205598;59;2542;-18
2023/10/02 13:03:14;;;;;;;;;;;;;;;;;;2217264;66;2719;-18
2023/10/02 13:05:47;;;;;;;;;;;;;;;;;;2201121;59;2508;-18
2023/10/02 13:08:18;;;;;;;;;;;;;;;;;;2205252;66;4842;-18
2023/10/02 13:10:48;;;;;;;;;;;;;;;;;;2204935;66;3634;-18
2023/10/02 13:13:18;;;;;;;;;;;;;;;;;;2205249;59;2736;-18
2023/10/02 13:15:48;;;;;;;;;;;;;;;;;;2204705;59;2480;-18
2023/10/02 13:18:18;;;;;;;;;;;;;;;;;;2205472;59;4138;-18
2023/10/02 13:20:53;;;;;;;;;;;;;;;;;;2204914;66;4701;-18
2023/10/02 13:23:23;;;;;;;;;;;;;;;;;;2205445;66;2690;-18
2023/10/02 13:25:54;;;;;;;;;;;;;;;;;;2205015;59;3934;-18
2023/10/02 13:28:24;;;;;;;;;;;;;;;;;;2205210;66;2862;-18
2023/10/02 13:30:54;;;;;;;;;;;;;;;;;;2203722;66;3260;-18
2023/10/02 13:33:25;;;;;;;;;;;;;;;;;;2205145;66;3303;-18
2023/10/02 13:36:00;;;;;;;;;;;;;;;;;;2204446;66;3158;-18
2023/10/02 13:38:31;;;;;;;;;;;;;;;;;;2204335;59;3355;-18
2023/10/02 13:41:11;;;;;;;;;;;;;;;;;;2204318;58;3752;-18
2023/10/02 13:43:42;;;;;;;;;;;;;;;;;;2203968;66;2216;-18
2023/10/02 13:46:14;;;;;;;;;;;;;;;;;;2204513;59;3516;-18
2023/10/02 13:48:44;;;;;;;;;;;;;;;;;;2204327;66;3499;-18
2023/10/02 13:51:18;;;;;;;;;;;;;;;;;;2216623;58;3198;-18
2023/10/02 13:53:49;;;;;;;;;;;;;;;;;;2203320;66;2373;-18
2023/10/02 13:56:25;;;;;;;;;;;;;;;;;;2204584;59;2868;-18
2023/10/02 13:58:55;;;;;;;;;;;;;;;;;;2204277;59;2415;-18
2023/10/02 14:01:25;;;;;;;;;;;;;;;;;;2205059;59;2088;-18
2023/10/02 14:03:56;;;;;;;;;;;;;;;;;;2215473;66;3529;-18
2023/10/02 14:06:28;;;;;;;;;;;;;;;;;;2204987;60;2914;-18
2023/10/02 14:08:59;;;;;;;;;;;;;;;;;;2205018;66;2324;-18
2023/10/02 14:11:29;;;;;;;;;;;;;;;;;;2205708;59;3455;-18
2023/10/02 14:14:00;;;;;;;;;;;;;;;;;;2204821;59;2726;-18
2023/10/02 14:16:31;;;;;;;;;;;;;;;;;;2204914;66;3465;-18
2023/10/02 14:19:02;;;;;;;;;;;;;;;;;;2204066;59;2673;-18
2023/10/02 14:21:32;;;;;;;;;;;;;;;;;;2204610;59;3570;-18
2023/10/02 14:24:04;;;;;;;;;;;;;;;;;;2204423;66;4319;-18
2023/10/02 14:26:34;;;;;;;;;;;;;;;;;;2206074;66;2771;-18
2023/10/02 14:29:05;;;;;;;;;;;;;;;;;;2203150;66;2571;-18
2023/10/02 14:31:36;;;;;;;;;;;;;;;;;;2205145;59;4532;-18
2023/10/02 14:34:06;;;;;;;;;;;;;;;;;;2206534;66;3510;-18
2023/10/02 14:36:37;;;;;;;;;;;;;;;;;;2213676;66;3933;-18
2023/10/02 14:39:07;;;;;;;;;;;;;;;;;;2205738;59;4550;-18
2023/10/02 14:41:37;;;;;;;;;;;;;;;;;;2203308;59;3646;-18
2023/10/02 14:44:07;;;;;;;;;;;;;;;;;;2205030;66;2408;-18
2023/10/02 14:46:39;;;;;;;;;;;;;;;;;;2202685;66;4030;-18
2023/10/02 14:49:11;;;;;;;;;;;;;;;;;;2206043;59;2208;-18
2023/10/02 14:51:41;;;;;;;;;;;;;;;;;;2205146;59;3961;-18
2023/10/02 14:54:11;;;;;;;;;;;;;;;;;;2204559;66;2692;-18
2023/10/02 14:56:41;;;;;;;;;;;;;;;;;;2205482;66;3610;-18
2023/10/02 14:59:12;;;;;;;;;;;;;;;;;;2205371;66;3840;-18
2023/10/02 15:01:42;;;;;;;;;;;;;;;;;;2205123;59;4157;-18
2023/10/02 15:04:13;;;;;;;;;;;;;;;;;;2216011;66;3610;-18
2023/10/02 15:06:45;;;;;;;;;;;;;;;;;;2203477;59;5136;-18
2023/10/02 15:09:22;;;;;;;;;;;;;;;;;;2204445;66;4026;-18
2023/10/02 15:11:53;;;;;;;;;;;;;;;;;;2204585;59;2248;-18
2023/10/02 15:14:23;;;;;;;;;;;;;;;;;;2215455;58;2513;-18
2023/10/02 15:16:53;;;;;;;;;;;;;;;;;;2205130;66;2839;-18
2023/10/02 15:19:24;;;;;;;;;;;;;;;;;;2217068;59;2743;-18
2023/10/02 15:21:54;;;;;;;;;;;;;;;;;;2217267;66;3352;-18
2023/10/02 15:24:24;;;;;;;;;;;;;;;;;;2217274;66;2433;-18
2023/10/02 15:26:56;;;;;;;;;;;;;;;;;;2205514;59;2616;-18
2023/10/02 15:29:27;;;;;;;;;;;;;;;;;;2216961;66;2394;-18
2023/10/02 15:31:57;;;;;;;;;;;;;;;;;;2205467;59;3627;-18
2023/10/02 15:34:27;;;;;;;;;;;;;;;;;;2206325;66;2132;-18
2023/10/02 15:36:57;;;;;;;;;;;;;;;;;;2204950;66;2454;-18
2023/10/02 15:39:27;;;;;;;;;;;;;;;;;;2206059;59;3312;-18
2023/10/02 15:41:58;;;;;;;;;;;;;;;;;;2205270;58;4047;-18
2023/10/02 15:44:29;;;;;;;;;;;;;;;;;;2218128;59;2575;-18
2023/10/02 15:47:03;;;;;;;;;;;;;;;;;;2205577;66;2706;-18
2023/10/02 15:49:33;;;;;;;;;;;;;;;;;;2205648;59;2200;-18
2023/10/02 15:52:04;;;;;;;;;;;;;;;;;;2217328;58;3408;-18
2023/10/02 15:54:34;;;;;;;;;;;;;;;;;;2207559;66;4275;-18
2023/10/02 15:57:04;;;;;;;;;;;;;;;;;;2205218;59;2419;-18
2023/10/02 15:59:34;;;;;;;;;;;;;;;;;;2207055;59;3853;-18
2023/10/02 16:02:11;;;;;;;;;;;;;;;;;;2216148;58;2490;-18
2023/10/02 16:04:42;;;;;;;;;;;;;;;;;;2213839;66;3772;-18
2023/10/02 16:07:12;;;;;;;;;;;;;;;;;;2206024;59;3797;-18
2023/10/02 16:09:42;;;;;;;;;;;;;;;;;;2207001;66;2274;-18
2023/10/02 16:12:13;;;;;;;;;;;;;;;;;;2217710;58;2229;-18
2023/10/02 16:14:43;;;;;;;;;;;;;;;;;;2205635;59;3647;-18
2023/10/02 16:17:14;;;;;;;;;;;;;;;;;;2217424;59;2337;-18
2023/10/02 16:19:44;;;;;;;;;;;;;;;;;;2204466;59;3738;-18
2023/10/02 16:22:14;;;;;;;;;;;;;;;;;;2217597;66;3990;-18
2023/10/02 16:24:47;;;;;;;;;;;;;;;;;;2216233;66;2535;-18
2023/10/02 16:27:19;;;;;;;;;;;;;;;;;;2205342;66;3487;-18
2023/10/02 16:29:49;;;;;;;;;;;;;;;;;;2216592;62;3875;-18
2023/10/02 16:32:19;;;;;;;;;;;;;;;;;;2205417;59;3647;-18
2023/10/02 16:34:50;;;;;;;;;;;;;;;;;;2216294;66;2593;-17
2023/10/02 16:37:20;;;;;;;;;;;;;;;;;;2205913;66;2434;-18
2023/10/02 16:39:51;;;;;;;;;;;;;;;;;;2204770;59;2679;-18
2023/10/02 16:42:22;;;;;;;;;;;;;;;;;;2206444;59;2580;-17
2023/10/02 16:44:53;;;;;;;;;;;;;;;;;;2206576;59;2500;-17
2023/10/02 16:47:23;;;;;;;;;;;;;;;;;;2205892;66;3168;-17
2023/10/02 16:49:53;;;;;;;;;;;;;;;;;;2205352;59;4219;-17
2023/10/02 16:52:23;;;;;;;;;;;;;;;;;;2206323;59;3192;-17
2023/10/02 16:54:54;;;;;;;;;;;;;;;;;;2205517;66;3721;-17
2023/10/02 16:57:30;;;;;;;;;;;;;;;;;;2206012;66;2782;-18
2023/10/02 17:00:00;;;;;;;;;;;;;;;;;;2204959;66;3318;-17
2023/10/02 17:02:30;;;;;;;;;;;;;;;;;;2207452;59;2429;-19
2023/10/02 17:05:01;;;;;;;;;;;;;;;;;;2205322;66;3415;-17
2023/10/02 17:07:32;;;;;;;;;;;;;;;;;;2205972;59;2668;-17
2023/10/02 17:10:02;;;;;;;;;;;;;;;;;;2205444;66;3018;-17
2023/10/02 17:12:33;;;;;;;;;;;;;;;;;;2205043;59;2814;-18
2023/10/02 17:15:03;;;;;;;;;;;;;;;;;;2204253;58;2908;-18
2023/10/02 17:17:34;;;;;;;;;;;;;;;;;;2204887;59;3749;-18
2023/10/02 17:20:07;;;;;;;;;;;;;;;;;;2204500;59;3454;-18
2023/10/02 17:22:38;;;;;;;;;;;;;;;;;;2206071;59;3704;-17
2023/10/02 17:25:14;;;;;;;;;;;;;;;;;;2204029;66;2760;-17
2023/10/02 17:27:44;;;;;;;;;;;;;;;;;;2205424;59;2375;-18
2023/10/02 17:30:14;;;;;;;;;;;;;;;;;;2205124;66;3382;-18
2023/10/02 17:32:44;;;;;;;;;;;;;;;;;;2215559;58;2647;-18
2023/10/02 17:35:16;;;;;;;;;;;;;;;;;;2204352;66;3428;-17
2023/10/02 17:37:47;;;;;;;;;;;;;;;;;;2204929;59;3745;-17
2023/10/02 17:40:20;;;;;;;;;;;;;;;;;;2205574;66;4118;-17
2023/10/02 17:42:51;;;;;;;;;;;;;;;;;;2204464;59;3606;-17
2023/10/02 17:45:21;;;;;;;;;;;;;;;;;;2204586;59;2905;-18
2023/10/02 17:47:52;;;;;;;;;;;;;;;;;;2204521;66;3016;-17
2023/10/02 17:50:22;;;;;;;;;;;;;;;;;;2205298;59;3311;-17
2023/10/02 17:52:53;;;;;;;;;;;;;;;;;;2215749;58;2796;-17
2023/10/02 17:55:23;;;;;;;;;;;;;;;;;;2205050;66;3123;-17
2023/10/02 17:57:53;;;;;;;;;;;;;;;;;;2205111;59;2480;-18
2023/10/02 18:00:24;;;;;;;;;;;;;;;;;;2205761;59;2694;-18
2023/10/02 18:02:55;;;;;;;;;;;;;;;;;;2215897;66;3928;-18
2023/10/02 18:05:26;;;;;;;;;;;;;;;;;;2204806;59;1974;-17
2023/10/02 18:07:57;;;;;;;;;;;;;;;;;;2204840;66;2426;-17
2023/10/02 18:10:27;;;;;;;;;;;;;;;;;;2204812;66;2314;-17
2023/10/02 18:13:00;;;;;;;;;;;;;;;;;;2204025;59;2440;-17
2023/10/02 18:15:30;;;;;;;;;;;;;;;;;;2204470;59;3472;-17
2023/10/02 18:18:01;;;;;;;;;;;;;;;;;;2203456;59;3450;-18
2023/10/02 18:20:34;;;;;;;;;;;;;;;;;;2204557;59;2413;-17
2023/10/02 18:23:04;;;;;;;;;;;;;;;;;;2204692;66;2596;-17
2023/10/02 18:25:35;;;;;;;;;;;;;;;;;;2204910;66;3612;-17
2023/10/02 18:28:05;;;;;;;;;;;;;;;;;;2215655;58;3857;-18
2023/10/02 18:30:35;;;;;;;;;;;;;;;;;;2205294;59;3129;-17